createdAt,value
2018-09-06T00:00:28.823Z,0
2018-09-06T00:01:39.041Z,0
2018-09-06T00:02:49.057Z,0
2018-09-06T00:03:59.046Z,0
2018-09-06T00:05:09.139Z,0
2018-09-06T00:06:19.417Z,0
2018-09-06T00:07:29.612Z,0
2018-09-06T00:08:39.583Z,0
2018-09-06T00:09:49.987Z,0
2018-09-06T00:11:00.616Z,0
2018-09-06T00:12:18.640Z,0
2018-09-06T00:13:28.530Z,0
2018-09-06T00:14:38.748Z,0
2018-09-06T00:15:49.146Z,0
2018-09-06T00:16:59.699Z,0
2018-09-06T00:18:11.029Z,0
2018-09-06T00:19:21.657Z,0
2018-09-06T00:20:35.038Z,0
2018-09-06T00:21:45.416Z,0
2018-09-06T00:22:59.095Z,0
2018-09-06T00:24:11.339Z,0
2018-09-06T00:25:22.910Z,0
2018-09-06T00:26:34.979Z,0
2018-09-06T00:27:49.690Z,0
2018-09-06T00:29:02.748Z,0
2018-09-06T00:30:13.331Z,0
2018-09-06T00:31:25.578Z,0
2018-09-06T00:32:37.234Z,0
2018-09-06T00:33:47.502Z,0
2018-09-06T00:34:57.218Z,0
2018-09-06T00:36:07.197Z,0
2018-09-06T00:37:17.171Z,0
2018-09-06T00:38:26.877Z,0
2018-09-06T00:39:36.836Z,0
2018-09-06T00:40:46.798Z,0
2018-09-06T00:41:56.763Z,0
2018-09-06T00:43:06.467Z,0
2018-09-06T00:44:15.921Z,0
2018-09-06T00:45:25.632Z,0
2018-09-06T00:46:35.599Z,0
2018-09-06T00:47:45.555Z,0
2018-09-06T00:48:55.261Z,0
2018-09-06T00:50:04.974Z,0
2018-09-06T00:51:14.952Z,0
2018-09-06T00:52:24.922Z,0
2018-09-06T00:53:34.905Z,0
2018-09-06T00:54:44.629Z,0
2018-09-06T00:55:54.606Z,0
2018-09-06T00:57:04.384Z,0
2018-09-06T00:58:14.342Z,0
2018-09-06T00:59:24.067Z,0
2018-09-06T01:00:34.049Z,0
2018-09-06T01:01:44.007Z,0
2018-09-06T01:02:53.724Z,0
2018-09-06T01:04:03.707Z,0
2018-09-06T01:05:13.403Z,0
2018-09-06T01:06:23.371Z,0
2018-09-06T01:07:33.325Z,0
2018-09-06T01:08:43.296Z,0
2018-09-06T01:09:52.737Z,0
2018-09-06T01:11:02.696Z,0
2018-09-06T01:12:12.672Z,0
2018-09-06T01:13:22.381Z,0
2018-09-06T01:14:32.347Z,0
2018-09-06T01:15:42.039Z,0
2018-09-06T01:16:51.495Z,0
2018-09-06T01:18:01.209Z,0
2018-09-06T01:19:11.176Z,0
2018-09-06T01:20:21.139Z,0
2018-09-06T01:21:31.101Z,0
2018-09-06T01:22:40.814Z,0
2018-09-06T01:23:50.782Z,0
2018-09-06T01:25:00.751Z,0
2018-09-06T01:26:10.446Z,0
2018-09-06T01:27:20.403Z,0
2018-09-06T01:28:29.857Z,0
2018-09-06T01:29:39.562Z,0
2018-09-06T01:30:49.272Z,0
2018-09-06T01:31:59.229Z,0
2018-09-06T01:33:08.992Z,0
2018-09-06T01:34:18.970Z,0
2018-09-06T01:35:28.942Z,0
2018-09-06T01:36:38.908Z,0
2018-09-06T01:37:48.874Z,0
2018-09-06T01:38:58.571Z,0
2018-09-06T01:40:08.543Z,0
2018-09-06T01:41:18.506Z,0
2018-09-06T01:42:28.516Z,0
2018-09-06T01:43:38.537Z,0
2018-09-06T01:44:48.250Z,0
2018-09-06T01:45:58.212Z,0
2018-09-06T01:47:07.925Z,0
2018-09-06T01:48:17.873Z,0
2018-09-06T01:49:27.838Z,0
2018-09-06T01:50:37.803Z,0
2018-09-06T01:51:47.503Z,0
2018-09-06T01:52:57.463Z,0
2018-09-06T01:54:06.900Z,0
2018-09-06T01:55:16.883Z,0
2018-09-06T01:56:26.597Z,0
2018-09-06T01:57:36.313Z,0
2018-09-06T01:58:46.263Z,0
2018-09-06T01:59:56.272Z,0
2018-09-06T02:01:06.257Z,0
2018-09-06T02:02:16.222Z,0
2018-09-06T02:03:26.177Z,0
2018-09-06T02:04:35.875Z,0
2018-09-06T02:05:45.578Z,0
2018-09-06T02:06:55.531Z,0
2018-09-06T02:08:05.477Z,0
2018-09-06T02:09:15.438Z,0
2018-09-06T02:10:25.406Z,0
2018-09-06T02:11:35.369Z,0
2018-09-06T02:12:45.317Z,0
2018-09-06T02:13:55.283Z,0
2018-09-06T02:15:05.253Z,0
2018-09-06T02:16:14.957Z,0
2018-09-06T02:17:24.919Z,0
2018-09-06T02:18:34.875Z,0
2018-09-06T02:19:44.844Z,0
2018-09-06T02:20:54.790Z,0
2018-09-06T02:22:04.755Z,0
2018-09-06T02:23:14.710Z,0
2018-09-06T02:24:24.838Z,0
2018-09-06T02:25:34.917Z,0
2018-09-06T02:26:44.628Z,0
2018-09-06T02:27:54.574Z,0
2018-09-06T02:29:04.288Z,0
2018-09-06T02:30:13.983Z,0
2018-09-06T02:31:23.944Z,0
2018-09-06T02:32:33.662Z,0
2018-09-06T02:33:43.628Z,0
2018-09-06T02:34:53.606Z,0
2018-09-06T02:36:03.563Z,0
2018-09-06T02:37:13.032Z,0
2018-09-06T02:38:22.989Z,0
2018-09-06T02:39:32.943Z,0
2018-09-06T02:40:42.894Z,0
2018-09-06T02:41:52.869Z,0
2018-09-06T02:43:02.570Z,0
2018-09-06T02:44:12.564Z,0
2018-09-06T02:45:22.267Z,0
2018-09-06T02:46:32.219Z,0
2018-09-06T02:47:41.929Z,0
2018-09-06T02:48:51.377Z,0
2018-09-06T02:50:01.096Z,0
2018-09-06T02:51:10.538Z,0
2018-09-06T02:52:20.248Z,0
2018-09-06T02:53:29.962Z,0
2018-09-06T02:54:39.932Z,0
2018-09-06T02:55:49.639Z,0
2018-09-06T02:56:59.588Z,0
2018-09-06T02:58:09.292Z,0
2018-09-06T02:59:19.463Z,0
2018-09-06T03:00:29.420Z,0
2018-09-06T03:01:39.128Z,0
2018-09-06T03:02:48.828Z,0
2018-09-06T03:03:58.791Z,0
2018-09-06T03:05:08.757Z,0
2018-09-06T03:06:18.716Z,0
2018-09-06T03:07:28.677Z,0
2018-09-06T03:08:38.615Z,0
2018-09-06T03:09:48.592Z,0
2018-09-06T03:10:58.583Z,0
2018-09-06T03:12:08.571Z,0
2018-09-06T03:13:18.294Z,0
2018-09-06T03:14:28.011Z,0
2018-09-06T03:15:38.327Z,0
2018-09-06T03:16:48.034Z,0
2018-09-06T03:17:57.751Z,0
2018-09-06T03:19:07.711Z,0
2018-09-06T03:20:17.677Z,0
2018-09-06T03:21:27.370Z,0
2018-09-06T03:22:37.341Z,0
2018-09-06T03:23:47.042Z,0
2018-09-06T03:24:57.007Z,0
2018-09-06T03:26:06.704Z,0
2018-09-06T03:27:16.884Z,0
2018-09-06T03:28:26.587Z,0
2018-09-06T03:29:36.540Z,0
2018-09-06T03:30:46.267Z,0
2018-09-06T03:31:56.240Z,0
2018-09-06T03:33:05.946Z,0
2018-09-06T03:34:15.916Z,0
2018-09-06T03:35:25.883Z,0
2018-09-06T03:36:35.838Z,0
2018-09-06T03:37:45.791Z,0
2018-09-06T03:38:55.749Z,0
2018-09-06T03:40:05.707Z,0
2018-09-06T03:41:15.142Z,0
2018-09-06T03:42:25.100Z,0
2018-09-06T03:43:34.806Z,0
2018-09-06T03:44:44.508Z,0
2018-09-06T03:45:54.490Z,0
2018-09-06T03:47:04.456Z,0
2018-09-06T03:48:14.421Z,0
2018-09-06T03:49:24.387Z,0
2018-09-06T03:50:34.088Z,4
2018-09-06T03:51:44.044Z,4
2018-09-06T03:52:54.003Z,0
2018-09-06T03:54:03.723Z,4
2018-09-06T03:55:13.694Z,8
2018-09-06T03:56:23.670Z,4
2018-09-06T03:57:33.363Z,4
2018-09-06T03:58:43.333Z,8
2018-09-06T03:59:53.293Z,8
2018-09-06T04:01:03.038Z,12
2018-09-06T04:02:12.746Z,12
2018-09-06T04:03:22.703Z,20
2018-09-06T04:04:32.664Z,20
2018-09-06T04:05:42.644Z,24
2018-09-06T04:06:52.600Z,32
2018-09-06T04:08:02.566Z,40
2018-09-06T04:09:12.537Z,48
2018-09-06T04:10:22.252Z,60
2018-09-06T04:11:32.219Z,72
2018-09-06T04:12:41.941Z,84
2018-09-06T04:13:51.655Z,100
2018-09-06T04:15:01.617Z,116
2018-09-06T04:16:11.573Z,136
2018-09-06T04:17:21.549Z,160
2018-09-06T04:18:31.237Z,188
2018-09-06T04:19:41.090Z,212
2018-09-06T04:20:50.813Z,240
2018-09-06T04:22:00.529Z,272
2018-09-06T04:23:10.485Z,304
2018-09-06T04:24:20.429Z,340
2018-09-06T04:25:30.232Z,380
2018-09-06T04:26:39.948Z,420
2018-09-06T04:27:49.933Z,460
2018-09-06T04:28:59.899Z,504
2018-09-06T04:30:10.078Z,544
2018-09-06T04:31:20.039Z,592
2018-09-06T04:32:30.022Z,636
2018-09-06T04:33:39.982Z,688
2018-09-06T04:34:49.954Z,740
2018-09-06T04:36:00.080Z,796
2018-09-06T04:37:09.849Z,856
2018-09-06T04:38:19.802Z,916
2018-09-06T04:39:29.761Z,980
2018-09-06T04:40:39.734Z,1040
2018-09-06T04:41:49.444Z,1104
2018-09-06T04:42:59.407Z,1172
2018-09-06T04:44:09.394Z,1244
2018-09-06T04:45:19.368Z,1320
2018-09-06T04:46:29.078Z,1400
2018-09-06T04:47:39.060Z,1480
2018-09-06T04:48:49.016Z,1564
2018-09-06T04:49:59.017Z,1656
2018-09-06T04:51:08.778Z,1756
2018-09-06T04:52:18.750Z,1856
2018-09-06T04:53:28.459Z,1952
2018-09-06T04:54:38.419Z,2044
2018-09-06T04:55:48.141Z,2124
2018-09-06T04:56:58.123Z,2208
2018-09-06T04:58:08.099Z,2292
2018-09-06T04:59:18.083Z,2384
2018-09-06T05:00:28.067Z,2492
2018-09-06T05:01:37.516Z,2600
2018-09-06T05:02:47.484Z,2704
2018-09-06T05:03:57.238Z,2800
2018-09-06T05:05:07.225Z,2912
2018-09-06T05:06:16.942Z,3024
2018-09-06T05:07:26.390Z,3144
2018-09-06T05:08:36.351Z,3272
2018-09-06T05:09:46.057Z,3412
2018-09-06T05:10:56.009Z,3548
2018-09-06T05:12:05.971Z,3680
2018-09-06T05:13:15.686Z,3796
2018-09-06T05:14:25.394Z,3908
2018-09-06T05:15:35.380Z,4024
2018-09-06T05:16:45.337Z,4144
2018-09-06T05:17:55.300Z,4260
2018-09-06T05:19:05.275Z,4376
2018-09-06T05:20:15.267Z,4484
2018-09-06T05:21:24.979Z,4596
2018-09-06T05:22:34.961Z,4716
2018-09-06T05:23:44.967Z,4852
2018-09-06T05:24:54.941Z,5024
2018-09-06T05:26:04.911Z,5228
2018-09-06T05:27:14.882Z,5448
2018-09-06T05:28:24.584Z,5652
2018-09-06T05:29:34.552Z,5820
2018-09-06T05:30:44.725Z,5968
2018-09-06T05:31:54.775Z,6112
2018-09-06T05:33:04.747Z,6284
2018-09-06T05:34:14.460Z,6512
2018-09-06T05:35:24.512Z,6784
2018-09-06T05:36:34.185Z,7020
2018-09-06T05:37:44.299Z,7224
2018-09-06T05:38:54.008Z,7400
2018-09-06T05:40:03.201Z,7576
2018-09-06T05:41:13.173Z,7780
2018-09-06T05:42:22.901Z,7948
2018-09-06T05:43:32.607Z,8000
2018-09-06T05:44:42.581Z,7992
2018-09-06T05:45:52.283Z,7984
2018-09-06T05:47:01.996Z,7996
2018-09-06T05:48:11.709Z,8028
2018-09-06T05:49:21.713Z,8056
2018-09-06T05:50:31.409Z,8016
2018-09-06T05:51:40.880Z,7940
2018-09-06T05:52:50.333Z,7844
2018-09-06T05:54:00.305Z,7748
2018-09-06T05:55:10.006Z,7664
2018-09-06T05:56:19.958Z,7600
2018-09-06T05:57:29.936Z,7556
2018-09-06T05:58:39.893Z,7496
2018-09-06T05:59:49.790Z,7504
2018-09-06T06:00:59.573Z,7532
2018-09-06T06:02:09.273Z,7548
2018-09-06T06:03:19.226Z,7564
2018-09-06T06:04:29.216Z,7584
2018-09-06T06:05:38.924Z,7592
2018-09-06T06:06:48.615Z,7600
2018-09-06T06:07:58.587Z,7620
2018-09-06T06:09:08.559Z,7664
2018-09-06T06:10:18.532Z,7696
2018-09-06T06:11:28.510Z,7732
2018-09-06T06:12:38.474Z,7772
2018-09-06T06:13:48.185Z,7808
2018-09-06T06:14:58.138Z,7872
2018-09-06T06:16:08.422Z,7988
2018-09-06T06:17:17.823Z,7984
2018-09-06T06:18:27.805Z,8048
2018-09-06T06:19:37.764Z,8088
2018-09-06T06:20:47.730Z,8136
2018-09-06T06:21:57.710Z,8200
2018-09-06T06:23:07.698Z,8248
2018-09-06T06:24:17.685Z,8296
2018-09-06T06:25:27.668Z,8348
2018-09-06T06:26:37.626Z,8396
2018-09-06T06:27:47.343Z,8468
2018-09-06T06:28:57.359Z,8532
2018-09-06T06:30:07.071Z,8576
2018-09-06T06:31:17.039Z,8616
2018-09-06T06:32:27.194Z,8676
2018-09-06T06:33:37.152Z,8700
2018-09-06T06:34:47.131Z,8744
2018-09-06T06:35:57.090Z,8788
2018-09-06T06:37:07.074Z,8844
2018-09-06T06:38:16.804Z,8888
2018-09-06T06:39:26.795Z,8928
2018-09-06T06:40:36.765Z,8972
2018-09-06T06:41:46.733Z,9028
2018-09-06T06:42:56.716Z,9076
2018-09-06T06:44:06.703Z,9160
2018-09-06T06:45:16.679Z,9268
2018-09-06T06:46:26.643Z,9376
2018-09-06T06:47:36.614Z,9464
2018-09-06T06:48:46.079Z,9556
2018-09-06T06:49:56.064Z,9632
2018-09-06T06:51:05.796Z,9692
2018-09-06T06:52:15.255Z,9780
2018-09-06T06:53:25.244Z,9848
2018-09-06T06:54:35.260Z,9916
2018-09-06T06:55:45.271Z,10004
2018-09-06T06:56:54.716Z,10104
2018-09-06T06:58:04.686Z,10140
2018-09-06T06:59:14.411Z,10192
2018-09-06T07:00:24.400Z,10244
2018-09-06T07:01:34.135Z,10280
2018-09-06T07:02:43.850Z,10292
2018-09-06T07:03:53.906Z,10296
2018-09-06T07:05:03.939Z,10356
2018-09-06T07:06:13.927Z,10388
2018-09-06T07:07:24.119Z,10416
2018-09-06T07:08:33.847Z,10436
2018-09-06T07:09:43.828Z,10476
2018-09-06T07:10:53.823Z,10532
2018-09-06T07:12:03.800Z,10592
2018-09-06T07:13:13.769Z,10692
2018-09-06T07:14:23.754Z,10748
2018-09-06T07:15:33.493Z,10824
2018-09-06T07:16:43.462Z,10832
2018-09-06T07:17:53.459Z,10912
2018-09-06T07:19:03.439Z,10976
2018-09-06T07:20:13.417Z,11056
2018-09-06T07:21:23.409Z,11080
2018-09-06T07:22:33.382Z,11128
2018-09-06T07:23:43.339Z,10392
2018-09-06T07:24:53.315Z,11244
2018-09-06T07:26:03.297Z,11272
2018-09-06T07:27:12.995Z,11328
2018-09-06T07:28:22.722Z,11360
2018-09-06T07:29:32.697Z,11396
2018-09-06T07:30:43.223Z,11420
2018-09-06T07:31:53.201Z,11480
2018-09-06T07:33:03.179Z,11540
2018-09-06T07:34:13.159Z,11596
2018-09-06T07:35:23.497Z,11660
2018-09-06T07:36:33.309Z,11732
2018-09-06T07:37:43.018Z,11780
2018-09-06T07:38:53.000Z,11836
2018-09-06T07:40:02.976Z,11912
2018-09-06T07:41:13.133Z,11952
2018-09-06T07:42:22.941Z,12024
2018-09-06T07:43:32.385Z,12096
2018-09-06T07:44:42.357Z,12140
2018-09-06T07:45:51.811Z,12156
2018-09-06T07:47:01.748Z,12216
2018-09-06T07:48:11.727Z,12288
2018-09-06T07:49:21.452Z,12348
2018-09-06T07:50:31.425Z,12384
2018-09-06T07:51:41.360Z,12464
2018-09-06T07:52:51.400Z,12544
2018-09-06T07:54:01.400Z,12612
2018-09-06T07:55:11.382Z,12656
2018-09-06T07:56:21.137Z,12732
2018-09-06T07:57:31.424Z,12792
2018-09-06T07:58:41.471Z,12832
2018-09-06T07:59:51.509Z,12920
2018-09-06T08:01:01.244Z,12940
2018-09-06T08:02:11.263Z,12940
2018-09-06T08:03:21.320Z,13120
2018-09-06T08:04:31.538Z,13180
2018-09-06T08:05:41.568Z,13204
2018-09-06T08:06:51.572Z,13264
2018-09-06T08:08:01.577Z,13360
2018-09-06T08:09:11.584Z,13404
2018-09-06T08:10:21.740Z,13504
2018-09-06T08:11:31.734Z,13564
2018-09-06T08:12:41.437Z,13648
2018-09-06T08:13:51.202Z,13764
2018-09-06T08:15:01.189Z,21568
2018-09-06T08:16:11.167Z,29760
2018-09-06T08:17:21.156Z,30368
2018-09-06T08:18:31.156Z,29952
2018-09-06T08:19:41.177Z,30784
2018-09-06T08:20:50.901Z,32928
2018-09-06T08:22:00.916Z,31904
2018-09-06T08:23:10.639Z,32000
2018-09-06T08:24:20.928Z,32896
2018-09-06T08:25:30.672Z,34112
2018-09-06T08:26:40.644Z,34656
2018-09-06T08:27:50.375Z,34368
2018-09-06T08:29:00.156Z,34912
2018-09-06T08:30:09.868Z,36160
2018-09-06T08:31:19.879Z,37504
2018-09-06T08:32:29.690Z,38272
2018-09-06T08:33:39.421Z,38560
2018-09-06T08:34:49.418Z,38144
2018-09-06T08:35:59.400Z,37888
2018-09-06T08:37:09.393Z,38880
2018-09-06T08:38:19.116Z,39968
2018-09-06T08:39:29.094Z,38880
2018-09-06T08:40:39.073Z,39360
2018-09-06T08:41:49.073Z,41280
2018-09-06T08:42:58.552Z,42464
2018-09-06T08:44:08.545Z,42080
2018-09-06T08:45:18.684Z,42176
2018-09-06T08:46:28.765Z,42240
2018-09-06T08:47:39.035Z,43456
2018-09-06T08:48:48.505Z,44288
2018-09-06T08:49:58.502Z,45760
2018-09-06T08:51:08.618Z,46336
2018-09-06T08:52:18.639Z,46400
2018-09-06T08:53:28.697Z,46240
2018-09-06T08:54:38.417Z,47200
2018-09-06T08:55:48.436Z,47904
2018-09-06T08:56:58.169Z,48736
2018-09-06T08:58:08.177Z,49152
2018-09-06T08:59:17.899Z,51104
2018-09-06T09:00:27.903Z,51808
2018-09-06T09:01:37.922Z,50624
2018-09-06T09:02:48.441Z,50912
2018-09-06T09:03:58.309Z,51520
2018-09-06T09:05:08.092Z,51840
2018-09-06T09:06:17.834Z,52320
2018-09-06T09:07:27.978Z,55072
2018-09-06T09:08:38.262Z,56160
2018-09-06T09:09:48.254Z,56736
2018-09-06T09:10:58.006Z,57248
2018-09-06T09:12:07.733Z,58560
2018-09-06T09:13:18.171Z,60320
2018-09-06T09:14:28.304Z,60096
2018-09-06T09:15:38.040Z,58464
2018-09-06T09:16:47.776Z,58432
2018-09-06T09:17:57.748Z,59040
2018-09-06T09:19:07.766Z,61952
2018-09-06T09:20:17.489Z,61568
2018-09-06T09:21:27.580Z,62624
2018-09-06T09:22:37.631Z,62176
2018-09-06T09:23:47.612Z,63872
2018-09-06T09:24:57.324Z,64896
2018-09-06T09:26:07.040Z,64544
2018-09-06T09:27:17.032Z,67840
2018-09-06T09:28:27.023Z,65280
2018-09-06T09:29:37.051Z,60800
2018-09-06T09:30:47.327Z,67712
2018-09-06T09:31:57.308Z,68000
2018-09-06T09:33:06.804Z,69696
2018-09-06T09:34:16.512Z,68864
2018-09-06T09:35:26.232Z,71072
2018-09-06T09:36:36.359Z,71680
2018-09-06T09:37:45.853Z,70944
2018-09-06T09:38:55.840Z,70240
2018-09-06T09:40:05.565Z,74816
2018-09-06T09:41:15.568Z,76256
2018-09-06T09:42:25.289Z,74496
2018-09-06T09:43:35.288Z,75872
2018-09-06T09:44:45.256Z,75136
2018-09-06T09:48:13.546Z,78688
2018-09-06T09:49:23.340Z,77920
2018-09-06T09:51:42.303Z,78496
2018-09-06T09:52:52.282Z,80256
2018-09-06T09:54:02.020Z,82144
2018-09-06T09:55:12.030Z,86848
2018-09-06T09:56:21.778Z,82528
2018-09-06T09:57:31.548Z,82528
2018-09-06T09:58:41.523Z,86400
2018-09-06T09:59:51.506Z,84128
2018-09-06T10:01:01.510Z,84000
2018-09-06T10:02:11.259Z,82752
2018-09-06T10:03:21.253Z,86912
2018-09-06T10:04:31.244Z,86688
2018-09-06T10:05:41.238Z,86560
2018-09-06T10:06:51.209Z,85856
2018-09-06T10:08:01.216Z,91712
2018-09-06T10:09:10.961Z,95008
2018-09-06T10:10:20.713Z,92288
2018-09-06T10:11:30.715Z,90880
2018-09-06T10:12:40.487Z,88544
2018-09-06T10:13:50.482Z,91232
2018-09-06T10:15:01.003Z,90016
2018-09-06T10:16:11.684Z,96096
2018-09-06T10:17:21.836Z,93888
2018-09-06T10:18:31.652Z,91424
2018-09-06T10:19:41.364Z,93888
2018-09-06T10:20:51.376Z,92320
2018-09-06T10:22:00.842Z,95168
2018-09-06T10:23:10.574Z,96864
2018-09-06T10:24:20.295Z,97472
2018-09-06T10:25:30.314Z,96032
2018-09-06T10:26:40.329Z,95392
2018-09-06T10:27:49.804Z,99808
2018-09-06T10:28:59.793Z,99552
2018-09-06T10:30:09.521Z,102048
2018-09-06T10:31:19.519Z,102720
2018-09-06T10:32:29.513Z,100640
2018-09-06T10:33:39.523Z,97856
2018-09-06T10:34:49.546Z,94752
2018-09-06T10:35:59.379Z,101632
2018-09-06T10:37:09.396Z,102784
2018-09-06T10:38:19.496Z,106496
2018-09-06T10:39:29.962Z,108352
2018-09-06T10:40:40.385Z,105888
2018-09-06T10:41:50.611Z,105504
2018-09-06T10:43:00.340Z,44672
2018-09-06T10:44:10.087Z,36512
2018-09-06T10:45:19.816Z,108288
2018-09-06T10:46:29.552Z,104928
2018-09-06T10:47:39.789Z,101856
2018-09-06T10:48:49.570Z,98240
2018-09-06T10:49:59.607Z,95008
2018-09-06T10:51:09.104Z,102848
2018-09-06T10:52:18.819Z,97920
2018-09-06T10:53:28.558Z,103104
2018-09-06T10:54:38.546Z,102304
2018-09-06T10:55:48.265Z,105056
2018-09-06T10:56:57.752Z,103552
2018-09-06T10:58:07.470Z,28128
2018-09-06T10:59:17.199Z,36576
2018-09-06T11:00:27.212Z,114208
2018-09-06T11:01:37.239Z,118816
2018-09-06T11:02:46.967Z,122976
2018-09-06T11:03:56.967Z,115648
2018-09-06T11:05:07.157Z,117120
2018-09-06T11:06:17.145Z,52608
2018-09-06T11:07:27.122Z,102208
2018-09-06T11:08:36.606Z,110624
2018-09-06T11:09:46.352Z,116000
2018-09-06T11:10:56.169Z,118176
2018-09-06T11:12:06.167Z,118112
2018-09-06T11:13:16.153Z,111808
2018-09-06T11:14:26.141Z,29280
2018-09-06T11:15:35.864Z,29632
2018-09-06T11:16:45.894Z,111968
2018-09-06T11:17:55.741Z,111360
2018-09-06T11:19:05.854Z,109024
2018-09-06T11:20:15.575Z,117696
2018-09-06T11:21:25.812Z,32512
2018-09-06T11:22:37.783Z,96256
2018-09-06T11:23:47.720Z,71936
2018-09-06T11:24:57.713Z,30240
2018-09-06T11:26:07.427Z,67648
2018-09-06T11:27:17.418Z,125824
2018-09-06T11:28:27.404Z,118720
2018-09-06T11:29:37.397Z,104736
2018-09-06T11:30:47.147Z,117312
2018-09-06T11:31:57.120Z,119968
2018-09-06T11:33:07.116Z,113984
2018-09-06T11:34:17.247Z,115488
2018-09-06T11:35:27.233Z,116544
2018-09-06T11:36:37.222Z,106880
2018-09-06T11:37:47.205Z,40832
2018-09-06T11:38:57.182Z,79616
2018-09-06T11:40:07.615Z,114880
2018-09-06T11:41:17.864Z,113664
2018-09-06T11:42:27.915Z,123520
2018-09-06T11:43:37.932Z,126880
2018-09-06T11:44:47.651Z,119680
2018-09-06T11:45:57.376Z,106688
2018-09-06T11:47:07.685Z,115552
2018-09-06T11:48:17.785Z,114272
2018-09-06T11:49:27.812Z,110272
2018-09-06T11:50:37.548Z,114688
2018-09-06T11:51:47.579Z,114304
2018-09-06T11:52:57.567Z,110656
2018-09-06T11:54:07.540Z,118400
2018-09-06T11:55:17.547Z,120768
2018-09-06T11:56:27.280Z,119040
2018-09-06T11:57:37.297Z,119872
2018-09-06T11:58:47.291Z,117088
2018-09-06T11:59:57.269Z,116832
2018-09-06T12:01:07.001Z,123680
2018-09-06T12:02:17.445Z,117824
2018-09-06T12:03:27.502Z,117088
2018-09-06T12:04:37.233Z,122432
2018-09-06T12:05:47.210Z,123616
2018-09-06T12:06:56.939Z,124032
2018-09-06T12:08:06.910Z,122368
2018-09-06T12:09:16.904Z,124192
2018-09-06T12:10:26.643Z,119872
2018-09-06T12:11:36.612Z,127232
2018-09-06T12:12:46.601Z,113216
2018-09-06T12:13:56.293Z,123520
2018-09-06T12:15:06.282Z,126464
2018-09-06T12:16:16.262Z,116480
2018-09-06T12:17:26.266Z,121952
2018-09-06T12:18:36.253Z,123040
2018-09-06T12:19:46.252Z,125024
2018-09-06T12:20:56.302Z,126048
2018-09-06T12:22:06.092Z,109472
2018-09-06T12:23:16.036Z,36832
2018-09-06T12:24:26.036Z,118592
2018-09-06T12:25:35.945Z,66048
2018-09-06T12:26:45.729Z,64928
2018-09-06T12:27:55.464Z,32576
2018-09-06T12:29:05.451Z,28288
2018-09-06T12:30:15.449Z,68384
2018-09-06T12:31:25.436Z,28864
2018-09-06T12:32:35.796Z,23904
2018-09-06T12:33:46.256Z,22688
2018-09-06T12:34:56.461Z,22976
2018-09-06T12:36:06.453Z,24384
2018-09-06T12:37:16.466Z,26560
2018-09-06T12:38:26.692Z,27136
2018-09-06T12:39:36.701Z,34944
2018-09-06T12:40:46.691Z,38880
2018-09-06T12:41:56.716Z,46304
2018-09-06T12:43:06.684Z,98176
2018-09-06T12:44:16.404Z,125312
2018-09-06T12:45:26.404Z,130496
2018-09-06T12:46:36.379Z,126112
2018-09-06T12:47:46.372Z,123008
2018-09-06T12:48:56.153Z,119936
2018-09-06T12:50:05.950Z,63936
2018-09-06T12:51:15.961Z,30048
2018-09-06T12:52:25.721Z,75840
2018-09-06T12:53:35.694Z,28832
2018-09-06T12:54:45.671Z,26720
2018-09-06T12:55:55.393Z,27648
2018-09-06T12:57:05.393Z,27808
2018-09-06T12:58:15.114Z,25600
2018-09-06T12:59:24.835Z,25312
2018-09-06T13:00:34.814Z,27584
2018-09-06T13:01:44.803Z,29792
2018-09-06T13:02:54.784Z,33120
2018-09-06T13:04:04.773Z,35904
2018-09-06T13:05:14.512Z,66176
2018-09-06T13:06:24.486Z,129376
2018-09-06T13:07:34.453Z,142752
2018-09-06T13:08:44.177Z,130688
2018-09-06T13:09:54.164Z,122912
2018-09-06T13:11:03.875Z,129792
2018-09-06T13:12:13.845Z,122464
2018-09-06T13:13:23.834Z,38080
2018-09-06T13:14:33.554Z,36320
2018-09-06T13:15:43.551Z,36192
2018-09-06T13:16:53.537Z,88448
2018-09-06T13:18:03.573Z,34944
2018-09-06T13:19:13.551Z,125152
2018-09-06T13:20:23.545Z,30272
2018-09-06T13:21:33.271Z,104448
2018-09-06T13:22:43.268Z,114624
2018-09-06T13:23:53.242Z,113376
2018-09-06T13:25:03.231Z,95712
2018-09-06T13:26:13.230Z,23232
2018-09-06T13:27:23.548Z,21792
2018-09-06T13:28:33.304Z,21408
2018-09-06T13:29:43.288Z,31168
2018-09-06T13:30:53.261Z,24928
2018-09-06T13:32:02.969Z,23456
2018-09-06T13:33:12.680Z,24128
2018-09-06T13:34:22.398Z,25120
2018-09-06T13:35:32.536Z,25696
2018-09-06T13:36:42.667Z,26144
2018-09-06T13:37:52.384Z,27968
2018-09-06T13:39:02.096Z,31712
2018-09-06T13:40:12.095Z,56064
2018-09-06T13:41:22.084Z,119136
2018-09-06T13:42:31.816Z,116960
2018-09-06T13:43:42.077Z,43968
2018-09-06T13:44:51.532Z,40608
2018-09-06T13:46:01.510Z,44480
2018-09-06T13:47:11.506Z,120864
2018-09-06T13:48:21.493Z,113408
2018-09-06T13:49:31.222Z,104224
2018-09-06T13:50:41.198Z,47648
2018-09-06T13:51:51.190Z,38336
2018-09-06T13:53:00.921Z,110528
2018-09-06T13:54:10.665Z,42368
2018-09-06T13:55:20.648Z,33792
2018-09-06T13:56:30.376Z,32032
2018-09-06T13:57:40.366Z,31904
2018-09-06T13:58:50.348Z,33440
2018-09-06T13:59:59.901Z,36640
2018-09-06T14:01:10.089Z,87392
2018-09-06T14:02:20.073Z,113920
2018-09-06T14:03:29.799Z,46464
2018-09-06T14:04:39.820Z,60544
2018-09-06T14:05:50.175Z,116928
2018-09-06T14:07:00.262Z,96192
2018-09-06T14:08:09.980Z,107488
2018-09-06T14:09:19.698Z,41920
2018-09-06T14:10:29.683Z,38816
2018-09-06T14:11:39.687Z,38176
2018-09-06T14:12:49.669Z,44192
2018-09-06T14:13:59.649Z,50240
2018-09-06T14:15:09.691Z,95200
2018-09-06T14:16:19.670Z,101280
2018-09-06T14:17:29.710Z,107296
2018-09-06T14:18:39.709Z,110496
2018-09-06T14:19:49.437Z,114528
2018-09-06T14:20:59.170Z,110464
2018-09-06T14:22:09.196Z,105856
2018-09-06T14:23:19.423Z,103232
2018-09-06T14:24:29.404Z,109728
2018-09-06T14:25:39.399Z,100896
2018-09-06T14:26:49.402Z,96064
2018-09-06T14:27:59.139Z,101184
2018-09-06T14:29:09.150Z,94464
2018-09-06T14:30:18.876Z,96608
2018-09-06T14:31:28.876Z,89120
2018-09-06T14:32:38.846Z,84928
2018-09-06T14:33:48.307Z,93536
2018-09-06T14:34:58.048Z,89504
2018-09-06T14:36:07.765Z,31776
2018-09-06T14:37:17.506Z,85984
2018-09-06T14:38:27.506Z,87776
2018-09-06T14:39:37.570Z,98144
2018-09-06T14:40:47.577Z,87648
2018-09-06T14:41:57.586Z,91264
2018-09-06T14:43:07.617Z,89920
2018-09-06T14:44:17.810Z,93376
2018-09-06T14:45:27.801Z,87232
2018-09-06T14:46:37.783Z,93504
2018-09-06T14:47:47.516Z,89024
2018-09-06T14:48:57.251Z,88224
2018-09-06T14:50:07.256Z,96448
2018-09-06T14:51:17.001Z,91264
2018-09-06T14:52:26.978Z,78784
2018-09-06T14:53:37.199Z,31072
2018-09-06T14:54:47.193Z,31136
2018-09-06T14:55:57.219Z,53440
2018-09-06T14:57:07.467Z,70080
2018-09-06T14:58:17.200Z,39776
2018-09-06T14:59:26.967Z,57792
2018-09-06T15:00:36.939Z,26784
2018-09-06T15:01:46.665Z,27200
2018-09-06T15:02:56.644Z,29664
2018-09-06T15:04:06.378Z,49280
2018-09-06T15:05:16.373Z,35392
2018-09-06T15:06:26.351Z,33504
2018-09-06T15:07:36.316Z,31040
2018-09-06T15:08:45.779Z,30784
2018-09-06T15:09:55.777Z,31648
2018-09-06T15:11:05.507Z,45568
2018-09-06T15:12:15.491Z,30784
2018-09-06T15:13:25.226Z,31744
2018-09-06T15:14:35.001Z,33248
2018-09-06T15:15:44.715Z,37600
2018-09-06T15:16:54.704Z,55808
2018-09-06T15:18:04.676Z,39296
2018-09-06T15:19:14.817Z,68864
2018-09-06T15:20:24.867Z,69280
2018-09-06T15:21:34.944Z,70944
2018-09-06T15:22:44.933Z,70336
2018-09-06T15:23:54.645Z,65376
2018-09-06T15:25:04.362Z,64512
2018-09-06T15:26:14.372Z,49888
2018-09-06T15:27:23.836Z,61248
2018-09-06T15:28:33.812Z,62112
2018-09-06T15:29:43.776Z,63840
2018-09-06T15:30:53.749Z,61728
2018-09-06T15:32:03.751Z,64000
2018-09-06T15:33:13.464Z,63872
2018-09-06T15:34:23.669Z,63136
2018-09-06T15:35:33.654Z,63456
2018-09-06T15:36:43.628Z,61024
2018-09-06T15:37:53.612Z,59328